sensor_id;sensor_type;location;lat;lon;timestamp;P1;durP1;ratioP1;P2;durP2;ratioP2
37349;SDS011;23231;52.358;4.926;2023-09-12T00:04:17;97.40;;;47.22;;
37349;SDS011;23231;52.358;4.926;2023-09-12T00:09:18;94.22;;;45.97;;
37349;SDS011;23231;52.358;4.926;2023-09-12T00:14:18;101.32;;;46.88;;
37349;SDS011;23231;52.358;4.926;2023-09-12T00:19:19;93.32;;;44.28;;
37349;SDS011;23231;52.358;4.926;2023-09-12T00:24:20;86.90;;;46.33;;
37349;SDS011;23231;52.358;4.926;2023-09-12T00:29:21;106.93;;;49.55;;
37349;SDS011;23231;52.358;4.926;2023-09-12T00:34:21;101.93;;;47.97;;
37349;SDS011;23231;52.358;4.926;2023-09-12T00:39:21;97.57;;;46.17;;
37349;SDS011;23231;52.358;4.926;2023-09-12T00:44:22;106.03;;;47.90;;
37349;SDS011;23231;52.358;4.926;2023-09-12T00:49:22;94.55;;;46.85;;
37349;SDS011;23231;52.358;4.926;2023-09-12T00:54:23;98.20;;;45.42;;
37349;SDS011;23231;52.358;4.926;2023-09-12T00:59:24;110.82;;;47.28;;
37349;SDS011;23231;52.358;4.926;2023-09-12T01:04:24;110.20;;;49.40;;
37349;SDS011;23231;52.358;4.926;2023-09-12T01:09:25;122.78;;;53.78;;
37349;SDS011;23231;52.358;4.926;2023-09-12T01:14:25;130.68;;;54.47;;
37349;SDS011;23231;52.358;4.926;2023-09-12T01:19:26;124.57;;;50.35;;
37349;SDS011;23231;52.358;4.926;2023-09-12T01:30:06;147.68;;;56.95;;
37349;SDS011;23231;52.358;4.926;2023-09-12T01:35:08;134.98;;;53.15;;
37349;SDS011;23231;52.358;4.926;2023-09-12T01:40:08;134.20;;;50.88;;
37349;SDS011;23231;52.358;4.926;2023-09-12T01:45:10;128.50;;;53.95;;
37349;SDS011;23231;52.358;4.926;2023-09-12T01:50:13;137.25;;;55.10;;
37349;SDS011;23231;52.358;4.926;2023-09-12T01:55:14;140.57;;;54.00;;
37349;SDS011;23231;52.358;4.926;2023-09-12T02:00:17;126.68;;;49.28;;
37349;SDS011;23231;52.358;4.926;2023-09-12T02:05:19;138.65;;;53.55;;
37349;SDS011;23231;52.358;4.926;2023-09-12T02:10:20;159.88;;;60.95;;
37349;SDS011;23231;52.358;4.926;2023-09-12T02:15:21;173.20;;;61.17;;
37349;SDS011;23231;52.358;4.926;2023-09-12T02:20:21;121.25;;;50.97;;
37349;SDS011;23231;52.358;4.926;2023-09-12T02:25:21;131.57;;;52.92;;
37349;SDS011;23231;52.358;4.926;2023-09-12T02:30:22;138.52;;;54.63;;
37349;SDS011;23231;52.358;4.926;2023-09-12T02:35:22;130.60;;;52.92;;
37349;SDS011;23231;52.358;4.926;2023-09-12T02:40:23;134.40;;;56.58;;
37349;SDS011;23231;52.358;4.926;2023-09-12T02:45:23;164.73;;;62.53;;
37349;SDS011;23231;52.358;4.926;2023-09-12T02:50:23;136.95;;;56.42;;
37349;SDS011;23231;52.358;4.926;2023-09-12T02:55:24;140.82;;;55.55;;
37349;SDS011;23231;52.358;4.926;2023-09-12T03:00:24;154.35;;;55.33;;
37349;SDS011;23231;52.358;4.926;2023-09-12T03:05:25;119.10;;;50.97;;
37349;SDS011;23231;52.358;4.926;2023-09-12T03:10:25;141.10;;;53.50;;
37349;SDS011;23231;52.358;4.926;2023-09-12T03:15:25;108.53;;;48.35;;
37349;SDS011;23231;52.358;4.926;2023-09-12T03:20:26;114.80;;;48.67;;
37349;SDS011;23231;52.358;4.926;2023-09-12T03:25:26;110.03;;;47.88;;
37349;SDS011;23231;52.358;4.926;2023-09-12T03:30:27;114.68;;;50.42;;
37349;SDS011;23231;52.358;4.926;2023-09-12T03:35:31;117.82;;;51.70;;
37349;SDS011;23231;52.358;4.926;2023-09-12T03:40:32;101.30;;;48.15;;
37349;SDS011;23231;52.358;4.926;2023-09-12T03:45:33;113.85;;;51.00;;
37349;SDS011;23231;52.358;4.926;2023-09-12T03:50:33;101.35;;;47.45;;
37349;SDS011;23231;52.358;4.926;2023-09-12T03:55:34;117.35;;;54.65;;
37349;SDS011;23231;52.358;4.926;2023-09-12T04:00:34;92.57;;;44.30;;
37349;SDS011;23231;52.358;4.926;2023-09-12T04:05:35;94.68;;;44.05;;
37349;SDS011;23231;52.358;4.926;2023-09-12T04:10:35;102.35;;;47.78;;
37349;SDS011;23231;52.358;4.926;2023-09-12T04:15:37;87.15;;;44.58;;
37349;SDS011;23231;52.358;4.926;2023-09-12T04:20:37;76.82;;;42.67;;
37349;SDS011;23231;52.358;4.926;2023-09-12T04:25:38;72.35;;;39.60;;
37349;SDS011;23231;52.358;4.926;2023-09-12T04:30:42;70.75;;;38.03;;
37349;SDS011;23231;52.358;4.926;2023-09-12T04:35:42;82.32;;;42.85;;
37349;SDS011;23231;52.358;4.926;2023-09-12T04:40:43;74.35;;;38.10;;
37349;SDS011;23231;52.358;4.926;2023-09-12T04:45:43;95.32;;;44.72;;
37349;SDS011;23231;52.358;4.926;2023-09-12T04:50:43;86.30;;;42.53;;
37349;SDS011;23231;52.358;4.926;2023-09-12T04:55:44;74.00;;;37.28;;
37349;SDS011;23231;52.358;4.926;2023-09-12T05:00:45;82.10;;;39.70;;
37349;SDS011;23231;52.358;4.926;2023-09-12T05:05:46;69.53;;;35.05;;
37349;SDS011;23231;52.358;4.926;2023-09-12T05:10:47;69.65;;;34.10;;
37349;SDS011;23231;52.358;4.926;2023-09-12T05:15:47;73.18;;;36.92;;
37349;SDS011;23231;52.358;4.926;2023-09-12T05:20:48;67.28;;;33.40;;
37349;SDS011;23231;52.358;4.926;2023-09-12T05:25:48;73.10;;;36.60;;
37349;SDS011;23231;52.358;4.926;2023-09-12T05:30:49;65.72;;;34.40;;
37349;SDS011;23231;52.358;4.926;2023-09-12T05:35:49;67.28;;;34.38;;
37349;SDS011;23231;52.358;4.926;2023-09-12T05:40:50;73.15;;;34.67;;
37349;SDS011;23231;52.358;4.926;2023-09-12T05:45:50;71.38;;;35.08;;
37349;SDS011;23231;52.358;4.926;2023-09-12T05:50:50;88.55;;;37.63;;
37349;SDS011;23231;52.358;4.926;2023-09-12T05:55:51;72.50;;;36.08;;
37349;SDS011;23231;52.358;4.926;2023-09-12T06:00:51;77.70;;;37.60;;
37349;SDS011;23231;52.358;4.926;2023-09-12T06:05:52;80.60;;;39.35;;
37349;SDS011;23231;52.358;4.926;2023-09-12T06:10:52;86.35;;;39.38;;
37349;SDS011;23231;52.358;4.926;2023-09-12T06:15:54;82.60;;;38.35;;
37349;SDS011;23231;52.358;4.926;2023-09-12T06:20:55;77.18;;;37.22;;
37349;SDS011;23231;52.358;4.926;2023-09-12T06:25:55;74.80;;;36.95;;
37349;SDS011;23231;52.358;4.926;2023-09-12T06:30:56;69.13;;;36.13;;
37349;SDS011;23231;52.358;4.926;2023-09-12T06:35:59;76.03;;;38.88;;
37349;SDS011;23231;52.358;4.926;2023-09-12T06:41:00;71.35;;;37.47;;
37349;SDS011;23231;52.358;4.926;2023-09-12T06:46:00;67.07;;;35.45;;
37349;SDS011;23231;52.358;4.926;2023-09-12T06:51:04;73.78;;;37.13;;
37349;SDS011;23231;52.358;4.926;2023-09-12T06:56:06;71.43;;;35.97;;
37349;SDS011;23231;52.358;4.926;2023-09-12T07:01:06;73.93;;;35.63;;
37349;SDS011;23231;52.358;4.926;2023-09-12T07:06:07;64.70;;;33.20;;
37349;SDS011;23231;52.358;4.926;2023-09-12T07:11:09;78.43;;;35.45;;
37349;SDS011;23231;52.358;4.926;2023-09-12T07:16:09;64.55;;;31.45;;
37349;SDS011;23231;52.358;4.926;2023-09-12T07:21:10;65.47;;;33.70;;
37349;SDS011;23231;52.358;4.926;2023-09-12T07:26:12;59.53;;;31.90;;
37349;SDS011;23231;52.358;4.926;2023-09-12T07:31:14;69.00;;;31.50;;
37349;SDS011;23231;52.358;4.926;2023-09-12T07:36:15;63.25;;;30.48;;
37349;SDS011;23231;52.358;4.926;2023-09-12T07:41:15;67.53;;;31.13;;
37349;SDS011;23231;52.358;4.926;2023-09-12T07:46:16;57.58;;;29.67;;
37349;SDS011;23231;52.358;4.926;2023-09-12T07:51:16;58.83;;;29.40;;
37349;SDS011;23231;52.358;4.926;2023-09-12T07:56:18;50.40;;;28.77;;
37349;SDS011;23231;52.358;4.926;2023-09-12T08:01:19;52.30;;;27.40;;
37349;SDS011;23231;52.358;4.926;2023-09-12T08:06:19;50.80;;;26.25;;
37349;SDS011;23231;52.358;4.926;2023-09-12T08:11:20;47.63;;;25.00;;
37349;SDS011;23231;52.358;4.926;2023-09-12T08:16:20;45.42;;;25.00;;
37349;SDS011;23231;52.358;4.926;2023-09-12T08:21:21;39.95;;;22.45;;
37349;SDS011;23231;52.358;4.926;2023-09-12T08:26:21;38.05;;;22.65;;
37349;SDS011;23231;52.358;4.926;2023-09-12T08:31:22;40.65;;;23.08;;
37349;SDS011;23231;52.358;4.926;2023-09-12T08:36:22;44.33;;;24.42;;
37349;SDS011;23231;52.358;4.926;2023-09-12T08:41:23;47.22;;;24.00;;
37349;SDS011;23231;52.358;4.926;2023-09-12T08:46:24;35.78;;;22.83;;
37349;SDS011;23231;52.358;4.926;2023-09-12T08:51:25;33.92;;;22.35;;
37349;SDS011;23231;52.358;4.926;2023-09-12T08:56:26;39.88;;;23.17;;
37349;SDS011;23231;52.358;4.926;2023-09-12T09:01:28;36.63;;;22.25;;
37349;SDS011;23231;52.358;4.926;2023-09-12T09:06:31;41.17;;;24.67;;
37349;SDS011;23231;52.358;4.926;2023-09-12T09:11:32;41.47;;;23.30;;
37349;SDS011;23231;52.358;4.926;2023-09-12T09:16:34;37.58;;;21.50;;
37349;SDS011;23231;52.358;4.926;2023-09-12T09:21:36;34.58;;;22.05;;
37349;SDS011;23231;52.358;4.926;2023-09-12T09:31:48;31.67;;;21.08;;
37349;SDS011;23231;52.358;4.926;2023-09-12T09:36:50;33.13;;;21.10;;
37349;SDS011;23231;52.358;4.926;2023-09-12T09:41:52;26.95;;;18.35;;
37349;SDS011;23231;52.358;4.926;2023-09-12T09:46:55;32.60;;;21.20;;
37349;SDS011;23231;52.358;4.926;2023-09-12T09:51:56;29.60;;;20.55;;
37349;SDS011;23231;52.358;4.926;2023-09-12T09:56:59;28.20;;;19.20;;
37349;SDS011;23231;52.358;4.926;2023-09-12T10:02:00;26.77;;;17.02;;
37349;SDS011;23231;52.358;4.926;2023-09-12T10:07:03;25.27;;;17.73;;
37349;SDS011;23231;52.358;4.926;2023-09-12T10:12:04;24.33;;;17.63;;
37349;SDS011;23231;52.358;4.926;2023-09-12T10:17:05;19.10;;;14.00;;
37349;SDS011;23231;52.358;4.926;2023-09-12T10:22:14;16.90;;;10.85;;
37349;SDS011;23231;52.358;4.926;2023-09-12T10:27:20;15.27;;;9.25;;
37349;SDS011;23231;52.358;4.926;2023-09-12T10:32:22;18.30;;;10.88;;
37349;SDS011;23231;52.358;4.926;2023-09-12T10:37:23;16.63;;;11.30;;
37349;SDS011;23231;52.358;4.926;2023-09-12T10:42:25;11.15;;;7.50;;
37349;SDS011;23231;52.358;4.926;2023-09-12T10:47:28;18.55;;;10.60;;
37349;SDS011;23231;52.358;4.926;2023-09-12T10:52:29;16.77;;;10.20;;
37349;SDS011;23231;52.358;4.926;2023-09-12T10:57:29;15.32;;;8.40;;
37349;SDS011;23231;52.358;4.926;2023-09-12T11:02:31;13.35;;;8.35;;
37349;SDS011;23231;52.358;4.926;2023-09-12T11:12:35;13.90;;;8.35;;
37349;SDS011;23231;52.358;4.926;2023-09-12T11:17:39;12.70;;;8.32;;
37349;SDS011;23231;52.358;4.926;2023-09-12T11:22:47;11.98;;;7.15;;
37349;SDS011;23231;52.358;4.926;2023-09-12T11:32:54;11.88;;;6.90;;
37349;SDS011;23231;52.358;4.926;2023-09-12T11:37:56;14.05;;;8.60;;
37349;SDS011;23231;52.358;4.926;2023-09-12T11:42:57;15.18;;;9.13;;
37349;SDS011;23231;52.358;4.926;2023-09-12T11:47:57;12.30;;;7.07;;
37349;SDS011;23231;52.358;4.926;2023-09-12T11:52:59;13.38;;;7.50;;
37349;SDS011;23231;52.358;4.926;2023-09-12T11:58:13;13.77;;;7.82;;
37349;SDS011;23231;52.358;4.926;2023-09-12T12:03:15;14.95;;;8.43;;
37349;SDS011;23231;52.358;4.926;2023-09-12T12:08:16;13.18;;;7.25;;
37349;SDS011;23231;52.358;4.926;2023-09-12T12:13:18;14.88;;;6.97;;
37349;SDS011;23231;52.358;4.926;2023-09-12T12:18:19;12.25;;;6.57;;
37349;SDS011;23231;52.358;4.926;2023-09-12T12:23:20;12.25;;;6.38;;
37349;SDS011;23231;52.358;4.926;2023-09-12T12:28:20;9.75;;;5.45;;
37349;SDS011;23231;52.358;4.926;2023-09-12T12:33:23;8.50;;;5.20;;
37349;SDS011;23231;52.358;4.926;2023-09-12T12:38:24;11.00;;;4.60;;
37349;SDS011;23231;52.358;4.926;2023-09-12T12:43:24;10.93;;;5.20;;
37349;SDS011;23231;52.358;4.926;2023-09-12T12:48:35;9.80;;;5.13;;
37349;SDS011;23231;52.358;4.926;2023-09-12T12:53:42;10.52;;;5.70;;
37349;SDS011;23231;52.358;4.926;2023-09-12T12:58:48;9.95;;;5.82;;
37349;SDS011;23231;52.358;4.926;2023-09-12T13:03:49;10.18;;;5.35;;
37349;SDS011;23231;52.358;4.926;2023-09-12T13:08:51;8.45;;;4.75;;
37349;SDS011;23231;52.358;4.926;2023-09-12T13:13:51;10.45;;;3.80;;
37349;SDS011;23231;52.358;4.926;2023-09-12T13:18:52;8.90;;;4.15;;
37349;SDS011;23231;52.358;4.926;2023-09-12T13:23:53;30.83;;;20.50;;
37349;SDS011;23231;52.358;4.926;2023-09-12T13:28:53;33.40;;;22.20;;
37349;SDS011;23231;52.358;4.926;2023-09-12T13:33:54;29.45;;;19.70;;
37349;SDS011;23231;52.358;4.926;2023-09-12T13:38:54;28.00;;;19.17;;
37349;SDS011;23231;52.358;4.926;2023-09-12T13:43:55;26.30;;;18.40;;
37349;SDS011;23231;52.358;4.926;2023-09-12T13:48:56;31.58;;;19.15;;
37349;SDS011;23231;52.358;4.926;2023-09-12T13:54:00;28.55;;;19.27;;
37349;SDS011;23231;52.358;4.926;2023-09-12T13:59:00;32.63;;;20.30;;
37349;SDS011;23231;52.358;4.926;2023-09-12T14:04:05;31.00;;;20.05;;
37349;SDS011;23231;52.358;4.926;2023-09-12T14:09:05;31.88;;;19.42;;
37349;SDS011;23231;52.358;4.926;2023-09-12T14:14:06;43.90;;;23.48;;
37349;SDS011;23231;52.358;4.926;2023-09-12T14:19:07;43.15;;;23.80;;
37349;SDS011;23231;52.358;4.926;2023-09-12T14:24:08;45.00;;;26.05;;
37349;SDS011;23231;52.358;4.926;2023-09-12T14:29:08;48.95;;;28.10;;
37349;SDS011;23231;52.358;4.926;2023-09-12T14:34:10;43.30;;;24.45;;
37349;SDS011;23231;52.358;4.926;2023-09-12T14:39:10;35.53;;;22.90;;
37349;SDS011;23231;52.358;4.926;2023-09-12T14:44:10;31.05;;;19.92;;
37349;SDS011;23231;52.358;4.926;2023-09-12T14:49:11;28.65;;;17.88;;
37349;SDS011;23231;52.358;4.926;2023-09-12T14:54:12;26.75;;;16.92;;
37349;SDS011;23231;52.358;4.926;2023-09-12T14:59:12;26.15;;;16.77;;
37349;SDS011;23231;52.358;4.926;2023-09-12T15:04:13;25.67;;;15.57;;
37349;SDS011;23231;52.358;4.926;2023-09-12T15:09:13;23.27;;;16.20;;
37349;SDS011;23231;52.358;4.926;2023-09-12T15:14:14;18.77;;;12.85;;
37349;SDS011;23231;52.358;4.926;2023-09-12T15:19:14;19.80;;;12.88;;
37349;SDS011;23231;52.358;4.926;2023-09-12T15:24:15;17.50;;;11.23;;
37349;SDS011;23231;52.358;4.926;2023-09-12T15:29:15;17.75;;;10.63;;
37349;SDS011;23231;52.358;4.926;2023-09-12T15:34:16;19.70;;;11.80;;
37349;SDS011;23231;52.358;4.926;2023-09-12T15:39:16;20.98;;;11.75;;
37349;SDS011;23231;52.358;4.926;2023-09-12T15:44:17;16.30;;;9.65;;
37349;SDS011;23231;52.358;4.926;2023-09-12T15:49:17;17.52;;;11.02;;
37349;SDS011;23231;52.358;4.926;2023-09-12T15:54:17;15.50;;;9.88;;
37349;SDS011;23231;52.358;4.926;2023-09-12T15:59:18;16.55;;;9.73;;
37349;SDS011;23231;52.358;4.926;2023-09-12T16:04:18;14.05;;;8.30;;
37349;SDS011;23231;52.358;4.926;2023-09-12T16:09:19;12.45;;;6.88;;
37349;SDS011;23231;52.358;4.926;2023-09-12T16:14:19;14.05;;;8.65;;
37349;SDS011;23231;52.358;4.926;2023-09-12T16:19:20;15.68;;;9.18;;
37349;SDS011;23231;52.358;4.926;2023-09-12T16:24:20;12.63;;;7.53;;
37349;SDS011;23231;52.358;4.926;2023-09-12T16:29:20;11.88;;;7.22;;
37349;SDS011;23231;52.358;4.926;2023-09-12T16:34:21;10.05;;;6.18;;
37349;SDS011;23231;52.358;4.926;2023-09-12T16:39:21;11.57;;;7.70;;
37349;SDS011;23231;52.358;4.926;2023-09-12T16:44:22;9.13;;;6.07;;
37349;SDS011;23231;52.358;4.926;2023-09-12T16:49:22;11.52;;;7.22;;
37349;SDS011;23231;52.358;4.926;2023-09-12T16:54:23;11.20;;;7.75;;
37349;SDS011;23231;52.358;4.926;2023-09-12T16:59:23;12.65;;;7.53;;
37349;SDS011;23231;52.358;4.926;2023-09-12T17:04:24;11.82;;;7.97;;
37349;SDS011;23231;52.358;4.926;2023-09-12T17:09:24;11.60;;;7.15;;
37349;SDS011;23231;52.358;4.926;2023-09-12T17:14:24;12.15;;;7.25;;
37349;SDS011;23231;52.358;4.926;2023-09-12T17:19:25;10.50;;;6.85;;
37349;SDS011;23231;52.358;4.926;2023-09-12T17:24:25;12.38;;;6.95;;
37349;SDS011;23231;52.358;4.926;2023-09-12T17:29:26;10.20;;;6.07;;
37349;SDS011;23231;52.358;4.926;2023-09-12T17:34:39;12.70;;;7.38;;
37349;SDS011;23231;52.358;4.926;2023-09-12T17:39:43;14.73;;;7.63;;
37349;SDS011;23231;52.358;4.926;2023-09-12T17:44:44;10.63;;;7.55;;
37349;SDS011;23231;52.358;4.926;2023-09-12T17:49:45;11.93;;;7.75;;
37349;SDS011;23231;52.358;4.926;2023-09-12T17:54:47;13.02;;;7.55;;
37349;SDS011;23231;52.358;4.926;2023-09-12T17:59:47;12.18;;;7.57;;
37349;SDS011;23231;52.358;4.926;2023-09-12T18:04:48;12.30;;;7.68;;
37349;SDS011;23231;52.358;4.926;2023-09-12T18:09:49;11.13;;;7.22;;
37349;SDS011;23231;52.358;4.926;2023-09-12T18:14:50;11.05;;;7.30;;
37349;SDS011;23231;52.358;4.926;2023-09-12T18:19:52;12.65;;;8.55;;
37349;SDS011;23231;52.358;4.926;2023-09-12T18:24:53;13.85;;;9.15;;
37349;SDS011;23231;52.358;4.926;2023-09-12T18:29:53;16.35;;;9.30;;
37349;SDS011;23231;52.358;4.926;2023-09-12T18:34:54;15.38;;;10.25;;
37349;SDS011;23231;52.358;4.926;2023-09-12T18:39:55;13.38;;;9.45;;
37349;SDS011;23231;52.358;4.926;2023-09-12T18:44:56;17.98;;;10.73;;
37349;SDS011;23231;52.358;4.926;2023-09-12T18:49:56;18.05;;;11.23;;
37349;SDS011;23231;52.358;4.926;2023-09-12T18:54:56;14.38;;;9.18;;
37349;SDS011;23231;52.358;4.926;2023-09-12T18:59:57;13.77;;;8.85;;
37349;SDS011;23231;52.358;4.926;2023-09-12T19:04:57;13.75;;;9.57;;
37349;SDS011;23231;52.358;4.926;2023-09-12T19:10:00;12.73;;;9.18;;
37349;SDS011;23231;52.358;4.926;2023-09-12T19:15:00;11.82;;;9.15;;
37349;SDS011;23231;52.358;4.926;2023-09-12T19:20:01;11.10;;;8.60;;
37349;SDS011;23231;52.358;4.926;2023-09-12T19:25:01;10.73;;;7.05;;
37349;SDS011;23231;52.358;4.926;2023-09-12T19:30:03;12.80;;;7.65;;
37349;SDS011;23231;52.358;4.926;2023-09-12T19:35:06;11.05;;;7.40;;
37349;SDS011;23231;52.358;4.926;2023-09-12T19:40:07;9.32;;;7.07;;
37349;SDS011;23231;52.358;4.926;2023-09-12T19:45:09;13.98;;;7.50;;
37349;SDS011;23231;52.358;4.926;2023-09-12T19:50:09;11.45;;;6.80;;
37349;SDS011;23231;52.358;4.926;2023-09-12T19:55:10;8.63;;;6.05;;
37349;SDS011;23231;52.358;4.926;2023-09-12T20:00:11;8.60;;;5.63;;
37349;SDS011;23231;52.358;4.926;2023-09-12T20:05:12;8.75;;;6.65;;
37349;SDS011;23231;52.358;4.926;2023-09-12T20:10:13;9.93;;;6.70;;
37349;SDS011;23231;52.358;4.926;2023-09-12T20:15:13;13.85;;;6.68;;
37349;SDS011;23231;52.358;4.926;2023-09-12T20:20:13;11.90;;;5.95;;
37349;SDS011;23231;52.358;4.926;2023-09-12T20:25:15;13.00;;;6.65;;
37349;SDS011;23231;52.358;4.926;2023-09-12T20:30:16;12.55;;;6.22;;
37349;SDS011;23231;52.358;4.926;2023-09-12T20:35:16;9.93;;;5.93;;
37349;SDS011;23231;52.358;4.926;2023-09-12T20:40:17;10.50;;;5.68;;
37349;SDS011;23231;52.358;4.926;2023-09-12T20:45:18;10.57;;;5.82;;
37349;SDS011;23231;52.358;4.926;2023-09-12T20:50:19;9.93;;;5.75;;
37349;SDS011;23231;52.358;4.926;2023-09-12T20:55:30;11.30;;;6.00;;
37349;SDS011;23231;52.358;4.926;2023-09-12T21:00:33;9.65;;;5.97;;
37349;SDS011;23231;52.358;4.926;2023-09-12T21:05:33;7.38;;;5.20;;
37349;SDS011;23231;52.358;4.926;2023-09-12T21:10:34;9.23;;;5.80;;
37349;SDS011;23231;52.358;4.926;2023-09-12T21:15:34;9.05;;;5.38;;
37349;SDS011;23231;52.358;4.926;2023-09-12T21:20:35;11.77;;;5.75;;
37349;SDS011;23231;52.358;4.926;2023-09-12T21:25:35;9.77;;;5.78;;
37349;SDS011;23231;52.358;4.926;2023-09-12T21:30:35;10.13;;;6.00;;
37349;SDS011;23231;52.358;4.926;2023-09-12T21:35:36;9.90;;;6.05;;
37349;SDS011;23231;52.358;4.926;2023-09-12T21:40:36;13.07;;;6.60;;
37349;SDS011;23231;52.358;4.926;2023-09-12T21:45:37;10.98;;;6.13;;
37349;SDS011;23231;52.358;4.926;2023-09-12T21:50:37;12.60;;;6.68;;
37349;SDS011;23231;52.358;4.926;2023-09-12T21:55:37;12.52;;;6.50;;
37349;SDS011;23231;52.358;4.926;2023-09-12T22:00:38;8.88;;;6.18;;
37349;SDS011;23231;52.358;4.926;2023-09-12T22:05:39;10.00;;;5.85;;
37349;SDS011;23231;52.358;4.926;2023-09-12T22:10:39;9.32;;;5.65;;
37349;SDS011;23231;52.358;4.926;2023-09-12T22:15:40;8.85;;;5.05;;
37349;SDS011;23231;52.358;4.926;2023-09-12T22:20:41;8.35;;;6.05;;
37349;SDS011;23231;52.358;4.926;2023-09-12T22:25:42;8.38;;;5.40;;
37349;SDS011;23231;52.358;4.926;2023-09-12T22:30:42;11.98;;;6.32;;
37349;SDS011;23231;52.358;4.926;2023-09-12T22:35:51;11.48;;;7.28;;
37349;SDS011;23231;52.358;4.926;2023-09-12T22:40:52;10.10;;;5.88;;
37349;SDS011;23231;52.358;4.926;2023-09-12T22:45:52;11.23;;;5.40;;
37349;SDS011;23231;52.358;4.926;2023-09-12T22:50:52;9.65;;;5.40;;
37349;SDS011;23231;52.358;4.926;2023-09-12T22:55:53;10.73;;;6.68;;
37349;SDS011;23231;52.358;4.926;2023-09-12T23:00:53;11.38;;;6.05;;
37349;SDS011;23231;52.358;4.926;2023-09-12T23:05:54;11.82;;;5.20;;
37349;SDS011;23231;52.358;4.926;2023-09-12T23:10:54;9.00;;;4.82;;
37349;SDS011;23231;52.358;4.926;2023-09-12T23:15:55;8.18;;;5.03;;
37349;SDS011;23231;52.358;4.926;2023-09-12T23:20:58;10.25;;;5.45;;
37349;SDS011;23231;52.358;4.926;2023-09-12T23:25:58;8.55;;;4.90;;
37349;SDS011;23231;52.358;4.926;2023-09-12T23:30:59;9.15;;;5.13;;
37349;SDS011;23231;52.358;4.926;2023-09-12T23:35:59;7.55;;;4.78;;
37349;SDS011;23231;52.358;4.926;2023-09-12T23:40:59;9.20;;;4.55;;
37349;SDS011;23231;52.358;4.926;2023-09-12T23:46:00;10.80;;;5.47;;
37349;SDS011;23231;52.358;4.926;2023-09-12T23:51:00;7.57;;;4.75;;
37349;SDS011;23231;52.358;4.926;2023-09-12T23:56:01;10.45;;;4.90;;
